sensor_id;sensor_type;location;lat;lon;timestamp;temperature;humidity
26589;DHT22;14235;48.532;8.722;2022-12-10T00:01:50;1.10;99.90
26589;DHT22;14235;48.532;8.722;2022-12-10T00:04:16;1.20;99.90
26589;DHT22;14235;48.532;8.722;2022-12-10T00:06:42;1.10;99.90
26589;DHT22;14235;48.532;8.722;2022-12-10T00:09:12;1.10;99.90
26589;DHT22;14235;48.532;8.722;2022-12-10T00:11:39;1.20;99.90
26589;DHT22;14235;48.532;8.722;2022-12-10T00:14:05;1.20;99.90
26589;DHT22;14235;48.532;8.722;2022-12-10T00:16:32;1.20;99.90
26589;DHT22;14235;48.532;8.722;2022-12-10T00:18:59;1.10;99.90
26589;DHT22;14235;48.532;8.722;2022-12-10T00:21:30;1.20;99.90
26589;DHT22;14235;48.532;8.722;2022-12-10T00:23:56;1.20;99.90
26589;DHT22;14235;48.532;8.722;2022-12-10T00:26:28;1.00;99.90
26589;DHT22;14235;48.532;8.722;2022-12-10T00:28:54;1.00;99.90
26589;DHT22;14235;48.532;8.722;2022-12-10T00:31:26;1.00;99.90
26589;DHT22;14235;48.532;8.722;2022-12-10T00:33:57;1.10;99.90
26589;DHT22;14235;48.532;8.722;2022-12-10T00:36:28;1.10;99.90
26589;DHT22;14235;48.532;8.722;2022-12-10T00:38:55;1.10;99.90
26589;DHT22;14235;48.532;8.722;2022-12-10T00:41:21;1.20;99.90
26589;DHT22;14235;48.532;8.722;2022-12-10T00:43:47;1.20;99.90
26589;DHT22;14235;48.532;8.722;2022-12-10T00:46:15;1.20;99.90
26589;DHT22;14235;48.532;8.722;2022-12-10T00:48:41;1.20;99.90
26589;DHT22;14235;48.532;8.722;2022-12-10T00:51:13;1.20;99.90
26589;DHT22;14235;48.532;8.722;2022-12-10T00:53:39;1.20;99.90
26589;DHT22;14235;48.532;8.722;2022-12-10T00:56:06;1.20;99.90
26589;DHT22;14235;48.532;8.722;2022-12-10T00:58:34;1.30;99.90
26589;DHT22;14235;48.532;8.722;2022-12-10T01:01:24;1.20;99.90
26589;DHT22;14235;48.532;8.722;2022-12-10T01:03:52;1.30;99.90
26589;DHT22;14235;48.532;8.722;2022-12-10T01:06:19;1.30;99.90
26589;DHT22;14235;48.532;8.722;2022-12-10T01:08:47;1.40;99.90
26589;DHT22;14235;48.532;8.722;2022-12-10T01:11:13;1.30;99.90
26589;DHT22;14235;48.532;8.722;2022-12-10T01:13:40;1.30;99.90
26589;DHT22;14235;48.532;8.722;2022-12-10T01:16:08;1.30;99.90
26589;DHT22;14235;48.532;8.722;2022-12-10T01:18:35;1.20;99.90
26589;DHT22;14235;48.532;8.722;2022-12-10T01:21:11;1.20;99.90
26589;DHT22;14235;48.532;8.722;2022-12-10T01:23:38;1.20;99.90
26589;DHT22;14235;48.532;8.722;2022-12-10T01:26:07;1.20;99.90
26589;DHT22;14235;48.532;8.722;2022-12-10T01:28:35;1.20;99.90
26589;DHT22;14235;48.532;8.722;2022-12-10T01:31:08;1.10;99.90
26589;DHT22;14235;48.532;8.722;2022-12-10T01:33:35;1.20;99.90
26589;DHT22;14235;48.532;8.722;2022-12-10T01:36:13;1.20;99.90
26589;DHT22;14235;48.532;8.722;2022-12-10T01:38:40;1.20;99.90
26589;DHT22;14235;48.532;8.722;2022-12-10T01:41:06;1.30;99.90
26589;DHT22;14235;48.532;8.722;2022-12-10T01:44:53;1.20;99.90
26589;DHT22;14235;48.532;8.722;2022-12-10T01:46:51;1.20;99.90
26589;DHT22;14235;48.532;8.722;2022-12-10T01:49:20;1.30;99.90
26589;DHT22;14235;48.532;8.722;2022-12-10T01:51:51;1.30;99.90
26589;DHT22;14235;48.532;8.722;2022-12-10T01:54:21;1.30;99.90
26589;DHT22;14235;48.532;8.722;2022-12-10T01:56:51;1.20;99.90
26589;DHT22;14235;48.532;8.722;2022-12-10T01:59:19;1.30;99.90
26589;DHT22;14235;48.532;8.722;2022-12-10T02:10:08;1.40;99.90
26589;DHT22;14235;48.532;8.722;2022-12-10T02:15:11;1.40;99.90
26589;DHT22;14235;48.532;8.722;2022-12-10T02:20:20;1.40;99.90
26589;DHT22;14235;48.532;8.722;2022-12-10T02:22:54;1.40;99.90
26589;DHT22;14235;48.532;8.722;2022-12-10T02:25:27;1.40;99.90
26589;DHT22;14235;48.532;8.722;2022-12-10T02:28:04;1.50;99.90
26589;DHT22;14235;48.532;8.722;2022-12-10T02:30:32;1.50;99.90
26589;DHT22;14235;48.532;8.722;2022-12-10T02:33:01;1.50;99.90
26589;DHT22;14235;48.532;8.722;2022-12-10T02:35:31;1.40;99.90
26589;DHT22;14235;48.532;8.722;2022-12-10T02:38:06;1.40;99.90
26589;DHT22;14235;48.532;8.722;2022-12-10T02:40:35;1.50;99.90
26589;DHT22;14235;48.532;8.722;2022-12-10T02:43:02;1.60;99.90
26589;DHT22;14235;48.532;8.722;2022-12-10T02:45:30;1.40;99.90
26589;DHT22;14235;48.532;8.722;2022-12-10T02:47:59;1.30;99.90
26589;DHT22;14235;48.532;8.722;2022-12-10T02:50:26;1.50;99.90
26589;DHT22;14235;48.532;8.722;2022-12-10T02:52:51;1.50;99.90
26589;DHT22;14235;48.532;8.722;2022-12-10T02:55:18;1.50;99.90
26589;DHT22;14235;48.532;8.722;2022-12-10T03:00:20;1.50;99.90
26589;DHT22;14235;48.532;8.722;2022-12-10T03:11:19;1.50;99.90
26589;DHT22;14235;48.532;8.722;2022-12-10T03:14:21;1.50;99.90
26589;DHT22;14235;48.532;8.722;2022-12-10T03:16:50;1.50;99.90
26589;DHT22;14235;48.532;8.722;2022-12-10T03:19:28;1.60;99.90
26589;DHT22;14235;48.532;8.722;2022-12-10T03:21:56;1.70;99.90
26589;DHT22;14235;48.532;8.722;2022-12-10T03:24:26;1.50;99.90
26589;DHT22;14235;48.532;8.722;2022-12-10T03:26:52;1.60;99.90
26589;DHT22;14235;48.532;8.722;2022-12-10T03:29:22;1.50;99.90
26589;DHT22;14235;48.532;8.722;2022-12-10T03:31:50;1.40;99.90
26589;DHT22;14235;48.532;8.722;2022-12-10T03:34:17;1.40;99.90
26589;DHT22;14235;48.532;8.722;2022-12-10T03:36:44;1.50;99.90
26589;DHT22;14235;48.532;8.722;2022-12-10T03:39:10;1.50;99.90
26589;DHT22;14235;48.532;8.722;2022-12-10T03:41:36;1.40;99.90
26589;DHT22;14235;48.532;8.722;2022-12-10T03:44:02;1.50;99.90
26589;DHT22;14235;48.532;8.722;2022-12-10T03:46:30;1.50;99.90
26589;DHT22;14235;48.532;8.722;2022-12-10T03:48:58;1.40;99.90
26589;DHT22;14235;48.532;8.722;2022-12-10T03:51:24;1.40;99.90
26589;DHT22;14235;48.532;8.722;2022-12-10T03:53:50;1.40;99.90
26589;DHT22;14235;48.532;8.722;2022-12-10T03:56:19;1.40;99.90
26589;DHT22;14235;48.532;8.722;2022-12-10T03:58:45;1.40;99.90
26589;DHT22;14235;48.532;8.722;2022-12-10T04:01:11;1.40;99.90
26589;DHT22;14235;48.532;8.722;2022-12-10T04:03:39;1.30;99.90
26589;DHT22;14235;48.532;8.722;2022-12-10T04:06:14;1.30;99.90
26589;DHT22;14235;48.532;8.722;2022-12-10T04:08:40;1.40;99.90
26589;DHT22;14235;48.532;8.722;2022-12-10T04:11:08;1.40;99.90
26589;DHT22;14235;48.532;8.722;2022-12-10T04:13:36;1.40;99.90
26589;DHT22;14235;48.532;8.722;2022-12-10T04:16:21;1.40;99.90
26589;DHT22;14235;48.532;8.722;2022-12-10T04:19:14;1.40;99.90
26589;DHT22;14235;48.532;8.722;2022-12-10T04:21:42;1.40;99.90
26589;DHT22;14235;48.532;8.722;2022-12-10T04:24:28;1.30;99.90
26589;DHT22;14235;48.532;8.722;2022-12-10T04:29:47;1.30;99.90
26589;DHT22;14235;48.532;8.722;2022-12-10T04:32:12;1.30;99.90
26589;DHT22;14235;48.532;8.722;2022-12-10T04:34:38;1.30;99.90
26589;DHT22;14235;48.532;8.722;2022-12-10T04:37:04;1.30;99.90
26589;DHT22;14235;48.532;8.722;2022-12-10T04:39:30;1.40;99.90
26589;DHT22;14235;48.532;8.722;2022-12-10T04:41:56;1.40;99.90
26589;DHT22;14235;48.532;8.722;2022-12-10T04:44:22;1.50;99.90
26589;DHT22;14235;48.532;8.722;2022-12-10T04:46:48;1.50;99.90
26589;DHT22;14235;48.532;8.722;2022-12-10T04:49:14;1.40;99.90
26589;DHT22;14235;48.532;8.722;2022-12-10T04:51:40;1.40;99.90
26589;DHT22;14235;48.532;8.722;2022-12-10T04:54:06;1.50;99.90
26589;DHT22;14235;48.532;8.722;2022-12-10T04:56:33;1.60;99.90
26589;DHT22;14235;48.532;8.722;2022-12-10T04:58:59;1.60;99.90
26589;DHT22;14235;48.532;8.722;2022-12-10T05:01:26;1.50;99.90
26589;DHT22;14235;48.532;8.722;2022-12-10T05:03:52;1.60;99.90
26589;DHT22;14235;48.532;8.722;2022-12-10T05:06:19;1.60;99.90
26589;DHT22;14235;48.532;8.722;2022-12-10T05:08:45;1.70;99.90
26589;DHT22;14235;48.532;8.722;2022-12-10T05:11:22;1.70;99.90
26589;DHT22;14235;48.532;8.722;2022-12-10T05:13:48;1.70;99.90
26589;DHT22;14235;48.532;8.722;2022-12-10T05:16:15;1.60;99.90
26589;DHT22;14235;48.532;8.722;2022-12-10T05:18:42;1.60;99.90
26589;DHT22;14235;48.532;8.722;2022-12-10T05:24:34;1.80;99.90
26589;DHT22;14235;48.532;8.722;2022-12-10T05:26:59;2.00;99.90
26589;DHT22;14235;48.532;8.722;2022-12-10T05:29:25;2.60;99.90
26589;DHT22;14235;48.532;8.722;2022-12-10T05:31:51;1.50;99.90
26589;DHT22;14235;48.532;8.722;2022-12-10T05:34:16;1.50;99.90
26589;DHT22;14235;48.532;8.722;2022-12-10T05:36:42;2.00;99.90
26589;DHT22;14235;48.532;8.722;2022-12-10T05:39:08;1.50;99.90
26589;DHT22;14235;48.532;8.722;2022-12-10T05:41:36;1.50;99.90
26589;DHT22;14235;48.532;8.722;2022-12-10T05:44:03;1.40;99.90
26589;DHT22;14235;48.532;8.722;2022-12-10T05:46:30;1.50;99.90
26589;DHT22;14235;48.532;8.722;2022-12-10T05:48:56;3.00;99.90
26589;DHT22;14235;48.532;8.722;2022-12-10T05:51:25;1.50;99.90
26589;DHT22;14235;48.532;8.722;2022-12-10T05:53:52;1.50;99.90
26589;DHT22;14235;48.532;8.722;2022-12-10T05:56:19;1.70;99.90
26589;DHT22;14235;48.532;8.722;2022-12-10T05:58:47;1.50;99.90
26589;DHT22;14235;48.532;8.722;2022-12-10T06:01:16;1.50;99.90
26589;DHT22;14235;48.532;8.722;2022-12-10T06:03:42;1.50;99.90
26589;DHT22;14235;48.532;8.722;2022-12-10T06:06:08;1.50;99.90
26589;DHT22;14235;48.532;8.722;2022-12-10T06:08:34;1.60;99.90
26589;DHT22;14235;48.532;8.722;2022-12-10T06:11:08;1.50;99.90
26589;DHT22;14235;48.532;8.722;2022-12-10T06:13:35;1.60;99.90
26589;DHT22;14235;48.532;8.722;2022-12-10T06:16:08;1.90;99.90
26589;DHT22;14235;48.532;8.722;2022-12-10T06:18:35;1.60;99.90
26589;DHT22;14235;48.532;8.722;2022-12-10T06:21:09;1.50;99.90
26589;DHT22;14235;48.532;8.722;2022-12-10T06:23:35;1.50;99.90
26589;DHT22;14235;48.532;8.722;2022-12-10T06:26:09;1.40;99.90
26589;DHT22;14235;48.532;8.722;2022-12-10T06:28:36;1.50;99.90
26589;DHT22;14235;48.532;8.722;2022-12-10T06:31:02;1.50;99.90
26589;DHT22;14235;48.532;8.722;2022-12-10T06:33:27;1.50;99.90
26589;DHT22;14235;48.532;8.722;2022-12-10T06:35:53;1.40;99.90
26589;DHT22;14235;48.532;8.722;2022-12-10T06:38:18;1.50;99.90
26589;DHT22;14235;48.532;8.722;2022-12-10T06:40:44;1.50;99.90
26589;DHT22;14235;48.532;8.722;2022-12-10T06:43:10;1.40;99.90
26589;DHT22;14235;48.532;8.722;2022-12-10T06:45:42;1.50;99.90
26589;DHT22;14235;48.532;8.722;2022-12-10T06:48:08;1.50;99.90
26589;DHT22;14235;48.532;8.722;2022-12-10T06:50:34;1.60;99.90
26589;DHT22;14235;48.532;8.722;2022-12-10T06:53:01;1.60;99.90
26589;DHT22;14235;48.532;8.722;2022-12-10T06:55:26;1.40;99.90
26589;DHT22;14235;48.532;8.722;2022-12-10T06:57:53;1.40;99.90
26589;DHT22;14235;48.532;8.722;2022-12-10T07:00:19;1.40;99.90
26589;DHT22;14235;48.532;8.722;2022-12-10T07:02:45;1.50;99.90
26589;DHT22;14235;48.532;8.722;2022-12-10T07:05:11;1.40;99.90
26589;DHT22;14235;48.532;8.722;2022-12-10T07:07:37;1.40;99.90
26589;DHT22;14235;48.532;8.722;2022-12-10T07:10:03;1.50;99.90
26589;DHT22;14235;48.532;8.722;2022-12-10T07:12:29;1.50;99.90
26589;DHT22;14235;48.532;8.722;2022-12-10T07:14:55;1.40;99.90
26589;DHT22;14235;48.532;8.722;2022-12-10T07:17:20;1.40;99.90
26589;DHT22;14235;48.532;8.722;2022-12-10T07:19:46;1.50;99.90
26589;DHT22;14235;48.532;8.722;2022-12-10T07:22:11;1.40;99.90
26589;DHT22;14235;48.532;8.722;2022-12-10T07:24:37;1.50;99.90
26589;DHT22;14235;48.532;8.722;2022-12-10T07:27:07;2.90;99.90
26589;DHT22;14235;48.532;8.722;2022-12-10T07:29:33;1.50;99.90
26589;DHT22;14235;48.532;8.722;2022-12-10T07:31:59;1.50;99.90
26589;DHT22;14235;48.532;8.722;2022-12-10T07:34:24;1.50;99.90
26589;DHT22;14235;48.532;8.722;2022-12-10T07:36:50;1.50;99.90
26589;DHT22;14235;48.532;8.722;2022-12-10T07:39:15;1.50;99.90
26589;DHT22;14235;48.532;8.722;2022-12-10T07:41:51;1.60;99.90
26589;DHT22;14235;48.532;8.722;2022-12-10T07:44:19;1.50;99.90
26589;DHT22;14235;48.532;8.722;2022-12-10T07:46:46;1.50;99.90
26589;DHT22;14235;48.532;8.722;2022-12-10T07:49:12;1.50;99.90
26589;DHT22;14235;48.532;8.722;2022-12-10T07:51:38;1.40;99.90
26589;DHT22;14235;48.532;8.722;2022-12-10T07:54:04;1.40;99.90
26589;DHT22;14235;48.532;8.722;2022-12-10T07:56:29;1.50;99.90
26589;DHT22;14235;48.532;8.722;2022-12-10T07:58:55;1.30;99.90
26589;DHT22;14235;48.532;8.722;2022-12-10T08:01:23;1.30;99.90
26589;DHT22;14235;48.532;8.722;2022-12-10T08:03:50;1.30;99.90
26589;DHT22;14235;48.532;8.722;2022-12-10T08:06:18;1.40;99.90
26589;DHT22;14235;48.532;8.722;2022-12-10T08:08:44;1.50;99.90
26589;DHT22;14235;48.532;8.722;2022-12-10T08:11:11;1.30;99.90
26589;DHT22;14235;48.532;8.722;2022-12-10T08:13:37;1.50;99.90
26589;DHT22;14235;48.532;8.722;2022-12-10T08:16:15;1.40;99.90
26589;DHT22;14235;48.532;8.722;2022-12-10T08:18:42;1.50;99.90
26589;DHT22;14235;48.532;8.722;2022-12-10T08:21:13;1.50;99.90
26589;DHT22;14235;48.532;8.722;2022-12-10T08:23:40;1.50;99.90
26589;DHT22;14235;48.532;8.722;2022-12-10T08:26:09;1.50;99.90
26589;DHT22;14235;48.532;8.722;2022-12-10T08:28:35;1.60;99.90
26589;DHT22;14235;48.532;8.722;2022-12-10T08:31:01;1.50;99.90
26589;DHT22;14235;48.532;8.722;2022-12-10T08:33:26;1.60;99.90
26589;DHT22;14235;48.532;8.722;2022-12-10T08:35:52;1.60;99.90
26589;DHT22;14235;48.532;8.722;2022-12-10T08:38:21;1.60;99.90
26589;DHT22;14235;48.532;8.722;2022-12-10T08:40:47;1.60;99.90
26589;DHT22;14235;48.532;8.722;2022-12-10T08:43:13;1.60;99.90
26589;DHT22;14235;48.532;8.722;2022-12-10T08:45:39;1.50;99.90
26589;DHT22;14235;48.532;8.722;2022-12-10T08:48:05;1.60;99.90
26589;DHT22;14235;48.532;8.722;2022-12-10T08:50:30;1.60;99.90
26589;DHT22;14235;48.532;8.722;2022-12-10T08:52:56;1.60;99.90
26589;DHT22;14235;48.532;8.722;2022-12-10T08:55:21;1.70;99.90
26589;DHT22;14235;48.532;8.722;2022-12-10T08:57:47;1.60;99.90
26589;DHT22;14235;48.532;8.722;2022-12-10T09:00:13;1.50;99.90
26589;DHT22;14235;48.532;8.722;2022-12-10T09:02:39;1.70;99.90
26589;DHT22;14235;48.532;8.722;2022-12-10T09:05:05;1.60;99.90
26589;DHT22;14235;48.532;8.722;2022-12-10T09:07:31;1.70;99.90
26589;DHT22;14235;48.532;8.722;2022-12-10T09:09:57;1.60;99.90
26589;DHT22;14235;48.532;8.722;2022-12-10T09:12:23;1.70;99.90
26589;DHT22;14235;48.532;8.722;2022-12-10T09:14:48;1.70;99.90
26589;DHT22;14235;48.532;8.722;2022-12-10T09:17:14;1.80;99.90
26589;DHT22;14235;48.532;8.722;2022-12-10T09:19:39;1.70;99.90
26589;DHT22;14235;48.532;8.722;2022-12-10T09:22:05;1.70;99.90
26589;DHT22;14235;48.532;8.722;2022-12-10T09:24:31;1.60;99.90
26589;DHT22;14235;48.532;8.722;2022-12-10T09:26:56;1.70;99.90
26589;DHT22;14235;48.532;8.722;2022-12-10T09:29:22;1.70;99.90
26589;DHT22;14235;48.532;8.722;2022-12-10T09:31:51;1.70;99.90
26589;DHT22;14235;48.532;8.722;2022-12-10T09:34:17;1.80;99.90
26589;DHT22;14235;48.532;8.722;2022-12-10T09:36:43;1.80;99.90
26589;DHT22;14235;48.532;8.722;2022-12-10T09:39:09;1.80;99.90
26589;DHT22;14235;48.532;8.722;2022-12-10T09:46:58;1.90;99.90
26589;DHT22;14235;48.532;8.722;2022-12-10T09:49:51;1.90;99.90
26589;DHT22;14235;48.532;8.722;2022-12-10T09:52:21;1.90;99.90
26589;DHT22;14235;48.532;8.722;2022-12-10T09:54:52;1.90;99.90
26589;DHT22;14235;48.532;8.722;2022-12-10T09:57:30;2.20;99.90
26589;DHT22;14235;48.532;8.722;2022-12-10T10:00:00;1.90;99.90
26589;DHT22;14235;48.532;8.722;2022-12-10T10:02:29;1.90;99.90
26589;DHT22;14235;48.532;8.722;2022-12-10T10:07:39;2.00;99.90
26589;DHT22;14235;48.532;8.722;2022-12-10T10:10:21;2.00;99.90
26589;DHT22;14235;48.532;8.722;2022-12-10T10:12:47;2.00;99.90
26589;DHT22;14235;48.532;8.722;2022-12-10T10:15:18;1.90;99.90
26589;DHT22;14235;48.532;8.722;2022-12-10T10:17:45;1.90;99.90
26589;DHT22;14235;48.532;8.722;2022-12-10T10:20:13;1.90;99.90
26589;DHT22;14235;48.532;8.722;2022-12-10T10:22:40;1.90;99.90
26589;DHT22;14235;48.532;8.722;2022-12-10T10:25:15;1.90;99.90
26589;DHT22;14235;48.532;8.722;2022-12-10T10:27:42;1.90;99.90
26589;DHT22;14235;48.532;8.722;2022-12-10T10:30:16;1.90;99.90
26589;DHT22;14235;48.532;8.722;2022-12-10T10:36:01;1.90;99.90
26589;DHT22;14235;48.532;8.722;2022-12-10T10:38:21;2.00;99.90
26589;DHT22;14235;48.532;8.722;2022-12-10T10:40:56;2.00;99.90
26589;DHT22;14235;48.532;8.722;2022-12-10T10:43:27;2.00;99.90
26589;DHT22;14235;48.532;8.722;2022-12-10T10:46:02;2.00;99.90
26589;DHT22;14235;48.532;8.722;2022-12-10T10:48:30;2.00;99.90
26589;DHT22;14235;48.532;8.722;2022-12-10T10:56:28;2.20;99.90
26589;DHT22;14235;48.532;8.722;2022-12-10T10:59:05;2.00;99.90
26589;DHT22;14235;48.532;8.722;2022-12-10T11:01:50;2.00;99.90
26589;DHT22;14235;48.532;8.722;2022-12-10T11:04:20;2.20;99.90
26589;DHT22;14235;48.532;8.722;2022-12-10T11:09:28;2.20;99.90
26589;DHT22;14235;48.532;8.722;2022-12-10T11:12:05;2.00;99.90
26589;DHT22;14235;48.532;8.722;2022-12-10T11:14:44;2.20;99.90
26589;DHT22;14235;48.532;8.722;2022-12-10T11:20:19;2.10;99.90
26589;DHT22;14235;48.532;8.722;2022-12-10T11:22:56;2.20;99.90
26589;DHT22;14235;48.532;8.722;2022-12-10T11:25:39;2.00;99.90
26589;DHT22;14235;48.532;8.722;2022-12-10T11:34:07;2.20;99.90
26589;DHT22;14235;48.532;8.722;2022-12-10T11:42:03;2.30;99.90
26589;DHT22;14235;48.532;8.722;2022-12-10T11:44:47;2.30;99.90
26589;DHT22;14235;48.532;8.722;2022-12-10T11:50:26;2.40;99.90
26589;DHT22;14235;48.532;8.722;2022-12-10T12:00:59;2.30;99.90
26589;DHT22;14235;48.532;8.722;2022-12-10T12:14:44;2.30;99.90
26589;DHT22;14235;48.532;8.722;2022-12-10T12:17:51;2.20;99.90
26589;DHT22;14235;48.532;8.722;2022-12-10T12:20:25;2.40;99.90
26589;DHT22;14235;48.532;8.722;2022-12-10T12:23:18;2.20;99.90
26589;DHT22;14235;48.532;8.722;2022-12-10T12:25:48;2.30;99.90
26589;DHT22;14235;48.532;8.722;2022-12-10T12:28:21;2.20;99.90
26589;DHT22;14235;48.532;8.722;2022-12-10T12:31:03;2.20;99.90
26589;DHT22;14235;48.532;8.722;2022-12-10T12:36:16;2.30;99.90
26589;DHT22;14235;48.532;8.722;2022-12-10T12:38:56;2.40;99.90
26589;DHT22;14235;48.532;8.722;2022-12-10T12:47:00;2.40;99.90
26589;DHT22;14235;48.532;8.722;2022-12-10T12:49:33;2.30;99.90
26589;DHT22;14235;48.532;8.722;2022-12-10T12:52:40;2.70;99.90
26589;DHT22;14235;48.532;8.722;2022-12-10T12:55:22;2.50;99.90
26589;DHT22;14235;48.532;8.722;2022-12-10T13:00:23;2.60;99.90
26589;DHT22;14235;48.532;8.722;2022-12-10T13:05:31;2.50;99.90
26589;DHT22;14235;48.532;8.722;2022-12-10T13:13:35;2.60;99.90
26589;DHT22;14235;48.532;8.722;2022-12-10T13:24:19;2.40;99.90
26589;DHT22;14235;48.532;8.722;2022-12-10T13:27:31;2.50;99.90
26589;DHT22;14235;48.532;8.722;2022-12-10T13:46:32;2.50;99.90
26589;DHT22;14235;48.532;8.722;2022-12-10T13:51:33;2.40;99.90
26589;DHT22;14235;48.532;8.722;2022-12-10T13:54:28;3.40;99.90
26589;DHT22;14235;48.532;8.722;2022-12-10T14:00:14;2.30;99.90
26589;DHT22;14235;48.532;8.722;2022-12-10T14:08:23;2.10;99.90
26589;DHT22;14235;48.532;8.722;2022-12-10T14:10:51;1.70;99.90
26589;DHT22;14235;48.532;8.722;2022-12-10T14:13:19;1.70;99.90
26589;DHT22;14235;48.532;8.722;2022-12-10T14:15:53;1.50;99.90
26589;DHT22;14235;48.532;8.722;2022-12-10T14:18:20;1.40;99.90
26589;DHT22;14235;48.532;8.722;2022-12-10T14:20:49;1.40;99.90
26589;DHT22;14235;48.532;8.722;2022-12-10T14:23:29;3.20;99.90
26589;DHT22;14235;48.532;8.722;2022-12-10T14:25:58;1.60;99.90
26589;DHT22;14235;48.532;8.722;2022-12-10T14:28:24;2.50;99.90
26589;DHT22;14235;48.532;8.722;2022-12-10T14:30:50;1.40;99.90
26589;DHT22;14235;48.532;8.722;2022-12-10T14:33:19;1.20;99.90
26589;DHT22;14235;48.532;8.722;2022-12-10T14:35:47;1.30;99.90
26589;DHT22;14235;48.532;8.722;2022-12-10T14:38:28;1.20;99.90
26589;DHT22;14235;48.532;8.722;2022-12-10T14:40:55;1.40;99.90
26589;DHT22;14235;48.532;8.722;2022-12-10T14:43:43;1.20;99.90
26589;DHT22;14235;48.532;8.722;2022-12-10T14:46:16;1.30;99.90
26589;DHT22;14235;48.532;8.722;2022-12-10T14:48:42;1.30;99.90
26589;DHT22;14235;48.532;8.722;2022-12-10T14:51:17;1.40;99.90
26589;DHT22;14235;48.532;8.722;2022-12-10T14:53:45;1.40;99.90
26589;DHT22;14235;48.532;8.722;2022-12-10T14:56:17;1.40;99.90
26589;DHT22;14235;48.532;8.722;2022-12-10T14:58:57;1.30;99.90
26589;DHT22;14235;48.532;8.722;2022-12-10T15:01:32;1.70;99.90
26589;DHT22;14235;48.532;8.722;2022-12-10T15:04:01;1.90;99.90
26589;DHT22;14235;48.532;8.722;2022-12-10T15:06:27;1.60;99.90
26589;DHT22;14235;48.532;8.722;2022-12-10T15:08:55;1.80;99.90
26589;DHT22;14235;48.532;8.722;2022-12-10T15:11:24;1.70;99.90
26589;DHT22;14235;48.532;8.722;2022-12-10T15:13:59;1.90;99.90
26589;DHT22;14235;48.532;8.722;2022-12-10T15:16:43;1.80;99.90
26589;DHT22;14235;48.532;8.722;2022-12-10T15:19:20;1.70;99.90
26589;DHT22;14235;48.532;8.722;2022-12-10T15:21:47;1.80;99.90
26589;DHT22;14235;48.532;8.722;2022-12-10T15:24:17;1.80;99.90
26589;DHT22;14235;48.532;8.722;2022-12-10T15:26:45;1.60;99.90
26589;DHT22;14235;48.532;8.722;2022-12-10T15:31:55;1.70;99.90
26589;DHT22;14235;48.532;8.722;2022-12-10T15:34:21;1.60;99.90
26589;DHT22;14235;48.532;8.722;2022-12-10T15:36:52;1.60;99.90
26589;DHT22;14235;48.532;8.722;2022-12-10T15:39:28;1.60;99.90
26589;DHT22;14235;48.532;8.722;2022-12-10T15:41:59;1.70;99.90
26589;DHT22;14235;48.532;8.722;2022-12-10T15:44:32;1.60;99.90
26589;DHT22;14235;48.532;8.722;2022-12-10T15:49:25;1.40;99.90
26589;DHT22;14235;48.532;8.722;2022-12-10T15:51:51;1.40;99.90
26589;DHT22;14235;48.532;8.722;2022-12-10T15:54:33;1.80;99.90
26589;DHT22;14235;48.532;8.722;2022-12-10T15:56:59;1.50;99.90
26589;DHT22;14235;48.532;8.722;2022-12-10T15:59:25;1.50;99.90
26589;DHT22;14235;48.532;8.722;2022-12-10T16:01:50;1.90;99.90
26589;DHT22;14235;48.532;8.722;2022-12-10T16:04:16;1.30;99.90
26589;DHT22;14235;48.532;8.722;2022-12-10T16:06:42;1.20;99.90
26589;DHT22;14235;48.532;8.722;2022-12-10T16:09:09;1.50;99.90
26589;DHT22;14235;48.532;8.722;2022-12-10T16:11:35;1.00;99.90
26589;DHT22;14235;48.532;8.722;2022-12-10T16:14:01;1.00;99.90
26589;DHT22;14235;48.532;8.722;2022-12-10T16:16:28;1.20;99.90
26589;DHT22;14235;48.532;8.722;2022-12-10T16:18:55;0.90;99.90
26589;DHT22;14235;48.532;8.722;2022-12-10T16:21:20;2.10;99.90
26589;DHT22;14235;48.532;8.722;2022-12-10T16:23:46;0.80;99.90
26589;DHT22;14235;48.532;8.722;2022-12-10T16:26:20;0.70;99.90
26589;DHT22;14235;48.532;8.722;2022-12-10T16:28:47;0.50;99.90
26589;DHT22;14235;48.532;8.722;2022-12-10T16:31:16;0.90;99.90
26589;DHT22;14235;48.532;8.722;2022-12-10T16:33:42;0.60;99.90
26589;DHT22;14235;48.532;8.722;2022-12-10T16:36:09;0.60;99.90
26589;DHT22;14235;48.532;8.722;2022-12-10T16:38:35;0.70;99.90
26589;DHT22;14235;48.532;8.722;2022-12-10T16:41:00;1.00;99.90
26589;DHT22;14235;48.532;8.722;2022-12-10T16:43:28;0.00;99.90
26589;DHT22;14235;48.532;8.722;2022-12-10T16:45:54;0.70;99.90
26589;DHT22;14235;48.532;8.722;2022-12-10T16:48:20;0.60;99.90
26589;DHT22;14235;48.532;8.722;2022-12-10T16:50:49;0.60;99.90
26589;DHT22;14235;48.532;8.722;2022-12-10T16:53:18;0.60;99.90
26589;DHT22;14235;48.532;8.722;2022-12-10T16:55:45;0.60;99.90
26589;DHT22;14235;48.532;8.722;2022-12-10T16:58:13;0.60;99.90
26589;DHT22;14235;48.532;8.722;2022-12-10T17:00:46;0.70;99.90
26589;DHT22;14235;48.532;8.722;2022-12-10T17:03:16;0.60;99.90
26589;DHT22;14235;48.532;8.722;2022-12-10T17:05:56;0.60;99.90
26589;DHT22;14235;48.532;8.722;2022-12-10T17:08:23;0.60;99.90
26589;DHT22;14235;48.532;8.722;2022-12-10T17:10:49;1.10;99.90
26589;DHT22;14235;48.532;8.722;2022-12-10T17:13:34;0.80;99.90
26589;DHT22;14235;48.532;8.722;2022-12-10T17:16:01;0.60;99.90
26589;DHT22;14235;48.532;8.722;2022-12-10T17:18:27;0.70;99.90
26589;DHT22;14235;48.532;8.722;2022-12-10T17:20:52;0.60;99.90
26589;DHT22;14235;48.532;8.722;2022-12-10T17:23:19;0.60;99.90
26589;DHT22;14235;48.532;8.722;2022-12-10T17:25:47;0.80;99.90
26589;DHT22;14235;48.532;8.722;2022-12-10T17:28:17;0.30;99.90
26589;DHT22;14235;48.532;8.722;2022-12-10T17:30:43;0.30;99.90
26589;DHT22;14235;48.532;8.722;2022-12-10T17:33:13;0.30;99.90
26589;DHT22;14235;48.532;8.722;2022-12-10T17:35:41;0.30;99.90
26589;DHT22;14235;48.532;8.722;2022-12-10T17:38:14;0.40;99.90
26589;DHT22;14235;48.532;8.722;2022-12-10T17:40:40;0.40;99.90
26589;DHT22;14235;48.532;8.722;2022-12-10T17:43:06;0.40;99.90
26589;DHT22;14235;48.532;8.722;2022-12-10T17:45:32;0.50;99.90
26589;DHT22;14235;48.532;8.722;2022-12-10T17:47:57;0.40;99.90
26589;DHT22;14235;48.532;8.722;2022-12-10T17:50:33;0.40;99.90
26589;DHT22;14235;48.532;8.722;2022-12-10T17:53:03;0.50;99.90
26589;DHT22;14235;48.532;8.722;2022-12-10T17:55:29;0.50;99.90
26589;DHT22;14235;48.532;8.722;2022-12-10T17:57:56;0.50;99.90
26589;DHT22;14235;48.532;8.722;2022-12-10T18:00:26;0.50;99.90
26589;DHT22;14235;48.532;8.722;2022-12-10T18:02:52;0.50;99.90
26589;DHT22;14235;48.532;8.722;2022-12-10T18:05:17;0.50;99.90
26589;DHT22;14235;48.532;8.722;2022-12-10T18:07:43;0.40;99.90
26589;DHT22;14235;48.532;8.722;2022-12-10T18:10:21;0.40;99.90
26589;DHT22;14235;48.532;8.722;2022-12-10T18:12:47;0.80;99.90
26589;DHT22;14235;48.532;8.722;2022-12-10T18:15:15;0.40;99.90
26589;DHT22;14235;48.532;8.722;2022-12-10T18:17:42;0.20;99.90
26589;DHT22;14235;48.532;8.722;2022-12-10T18:20:28;0.30;99.90
26589;DHT22;14235;48.532;8.722;2022-12-10T18:22:54;0.40;99.90
26589;DHT22;14235;48.532;8.722;2022-12-10T18:25:21;0.20;99.90
26589;DHT22;14235;48.532;8.722;2022-12-10T18:27:47;0.50;99.90